createdAt,value
2022-12-23T00:00:31.815Z,41
2022-12-23T00:01:33.937Z,40
2022-12-23T00:02:36.009Z,40
2022-12-23T00:03:38.101Z,40
2022-12-23T00:04:39.984Z,41
2022-12-23T00:05:42.200Z,40
2022-12-23T00:06:43.890Z,40
2022-12-23T00:07:45.802Z,40
2022-12-23T00:08:47.763Z,40
2022-12-23T00:09:49.803Z,41
2022-12-23T00:10:51.833Z,41
2022-12-23T00:11:53.811Z,41
2022-12-23T00:12:55.803Z,41
2022-12-23T00:13:57.926Z,41
2022-12-23T00:14:59.780Z,40
2022-12-23T00:16:02.004Z,42
2022-12-23T00:17:09.249Z,40
2022-12-23T00:18:05.881Z,41
2022-12-23T00:19:22.843Z,41
2022-12-23T00:20:24.890Z,41
2022-12-23T00:21:26.821Z,41
2022-12-23T00:22:28.822Z,41
2022-12-23T00:23:30.860Z,40
2022-12-23T00:24:32.781Z,41
2022-12-23T00:25:34.765Z,40
2022-12-23T00:26:35.907Z,39
2022-12-23T00:27:38.015Z,40
2022-12-23T00:28:39.784Z,39
2022-12-23T00:29:40.895Z,39
2022-12-23T00:30:42.841Z,39
2022-12-23T00:31:45.000Z,39
2022-12-23T00:32:46.801Z,39
2022-12-23T00:33:48.845Z,39
2022-12-23T00:34:51.036Z,40
2022-12-23T00:35:52.898Z,40
2022-12-23T00:36:54.846Z,39
2022-12-23T00:37:56.801Z,39
2022-12-23T00:38:58.928Z,39
2022-12-23T00:40:06.069Z,40
2022-12-23T00:41:02.821Z,40
2022-12-23T00:42:04.846Z,40
2022-12-23T00:43:07.041Z,40
2022-12-23T00:44:09.103Z,40
2022-12-23T00:45:11.079Z,40
2022-12-23T00:46:12.906Z,40
2022-12-23T00:47:14.753Z,40
2022-12-23T00:48:15.802Z,40
2022-12-23T00:49:16.848Z,39
2022-12-23T00:50:18.884Z,39
2022-12-23T00:51:20.803Z,40
2022-12-23T00:52:23.049Z,40
2022-12-23T00:53:24.829Z,40
2022-12-23T00:54:26.972Z,39
2022-12-23T00:55:28.853Z,39
2022-12-23T00:56:30.785Z,39
2022-12-23T00:57:32.789Z,39
2022-12-23T00:58:34.782Z,38
2022-12-23T00:59:37.420Z,38
2022-12-23T01:00:38.850Z,38
2022-12-23T01:01:40.940Z,38
2022-12-23T01:02:42.983Z,38
2022-12-23T01:03:44.805Z,38
2022-12-23T01:04:46.818Z,38
2022-12-23T01:05:48.767Z,38
2022-12-23T01:06:49.781Z,38
2022-12-23T01:07:51.801Z,39
2022-12-23T01:08:52.884Z,38
2022-12-23T01:09:54.851Z,38
2022-12-23T01:10:56.849Z,38
2022-12-23T01:11:58.764Z,38
2022-12-23T01:12:59.886Z,38
2022-12-23T01:14:01.930Z,37
2022-12-23T01:15:03.862Z,37
2022-12-23T01:16:07.540Z,35
2022-12-23T01:17:07.884Z,35
2022-12-23T01:18:09.862Z,35
2022-12-23T01:19:12.019Z,35
2022-12-23T01:20:13.869Z,35
2022-12-23T01:21:15.928Z,35
2022-12-23T01:22:18.003Z,35
2022-12-23T01:23:19.810Z,35
2022-12-23T01:24:21.816Z,36
2022-12-23T01:25:23.781Z,36
2022-12-23T01:26:24.831Z,37
2022-12-23T01:27:26.822Z,37
2022-12-23T01:28:28.831Z,37
2022-12-23T01:29:29.810Z,37
2022-12-23T01:30:31.861Z,38
2022-12-23T01:31:33.855Z,39
2022-12-23T01:32:35.846Z,39
2022-12-23T01:33:37.843Z,39
2022-12-23T01:34:39.833Z,40
2022-12-23T01:35:41.761Z,40
2022-12-23T01:36:42.824Z,39
2022-12-23T01:37:44.890Z,38
2022-12-23T01:38:46.765Z,39
2022-12-23T01:39:47.789Z,39
2022-12-23T01:40:48.862Z,38
2022-12-23T01:41:50.861Z,38
2022-12-23T01:42:52.790Z,38
2022-12-23T01:43:53.837Z,38
2022-12-23T01:44:55.916Z,38
2022-12-23T01:45:57.898Z,38
2022-12-23T01:46:59.846Z,37
2022-12-23T01:48:01.956Z,37
2022-12-23T01:49:03.828Z,38
2022-12-23T01:50:05.869Z,36
2022-12-23T01:51:07.803Z,35
2022-12-23T01:52:08.786Z,35
2022-12-23T01:53:09.853Z,34
2022-12-23T01:54:11.901Z,34
2022-12-23T01:55:13.823Z,34
2022-12-23T01:56:15.775Z,34
2022-12-23T01:57:17.925Z,34
2022-12-23T01:58:19.833Z,34
2022-12-23T01:59:21.802Z,34
2022-12-23T02:00:22.843Z,34
2022-12-23T02:01:24.959Z,34
2022-12-23T02:02:27.020Z,34
2022-12-23T02:06:51.781Z,34
2022-12-23T02:07:52.841Z,34
2022-12-23T02:08:54.862Z,34
2022-12-23T02:09:56.825Z,34
2022-12-23T02:10:57.910Z,33
2022-12-23T02:11:59.802Z,33
2022-12-23T02:13:01.802Z,33
2022-12-23T02:14:02.843Z,33
2022-12-23T02:15:04.953Z,33
2022-12-23T02:16:06.840Z,33
2022-12-23T02:17:08.864Z,33
2022-12-23T02:18:11.032Z,33
2022-12-23T02:19:12.830Z,34
2022-12-23T02:20:14.876Z,34
2022-12-23T02:21:16.797Z,34
2022-12-23T02:22:18.342Z,34
2022-12-23T02:23:19.965Z,34
2022-12-23T02:24:22.021Z,34
2022-12-23T02:25:23.929Z,34
2022-12-23T02:26:25.922Z,35
2022-12-23T02:27:27.861Z,35
2022-12-23T02:28:28.801Z,35
2022-12-23T02:29:29.765Z,35
2022-12-23T02:30:30.882Z,35
2022-12-23T02:31:32.896Z,35
2022-12-23T02:32:34.748Z,35
2022-12-23T02:33:36.049Z,35
2022-12-23T02:34:38.127Z,35
2022-12-23T02:35:39.854Z,35
2022-12-23T02:36:41.909Z,36
2022-12-23T02:37:43.828Z,35
2022-12-23T02:38:44.871Z,35
2022-12-23T02:39:46.887Z,35
2022-12-23T02:40:48.940Z,35
2022-12-23T02:41:50.995Z,34
2022-12-23T02:42:53.016Z,34
2022-12-23T02:43:54.852Z,34
2022-12-23T02:44:56.843Z,34
2022-12-23T02:45:59.070Z,34
2022-12-23T02:47:00.853Z,34
2022-12-23T02:48:01.922Z,34
2022-12-23T02:49:03.961Z,34
2022-12-23T02:50:05.836Z,34
2022-12-23T02:51:07.906Z,34
2022-12-23T02:52:09.863Z,33
2022-12-23T02:53:11.899Z,33
2022-12-23T02:54:13.820Z,33
2022-12-23T02:55:15.860Z,33
2022-12-23T02:56:18.071Z,33
2022-12-23T02:57:19.747Z,33
2022-12-23T02:58:20.861Z,33
2022-12-23T02:59:22.883Z,33
2022-12-23T03:00:24.922Z,33
2022-12-23T03:01:27.011Z,33
2022-12-23T03:02:29.032Z,33
2022-12-23T03:03:30.955Z,33
2022-12-23T03:04:32.960Z,33
2022-12-23T03:05:34.941Z,33
2022-12-23T03:06:37.024Z,32
2022-12-23T03:07:38.910Z,31
2022-12-23T03:08:40.901Z,33
2022-12-23T03:09:42.832Z,33
2022-12-23T03:10:43.856Z,33
2022-12-23T03:11:45.817Z,31
2022-12-23T03:12:46.946Z,31
2022-12-23T03:13:48.859Z,31
2022-12-23T03:14:50.879Z,31
2022-12-23T03:15:52.915Z,31
2022-12-23T03:16:54.916Z,31
2022-12-23T03:17:56.884Z,33
2022-12-23T03:18:58.809Z,33
2022-12-23T03:19:59.847Z,31
2022-12-23T03:21:01.867Z,31
2022-12-23T03:22:03.849Z,31
2022-12-23T03:23:06.124Z,31
2022-12-23T03:24:07.981Z,33
2022-12-23T03:25:10.011Z,33
2022-12-23T03:26:11.872Z,33
2022-12-23T03:27:13.804Z,33
2022-12-23T03:28:14.821Z,34
2022-12-23T03:29:15.999Z,31
2022-12-23T03:30:18.200Z,33
2022-12-23T03:31:19.980Z,31
2022-12-23T03:32:22.295Z,31
2022-12-23T03:33:23.847Z,31
2022-12-23T03:34:26.157Z,31
2022-12-23T03:35:27.912Z,31
2022-12-23T03:36:29.938Z,30
2022-12-23T03:37:31.899Z,30
2022-12-23T03:38:33.885Z,30
2022-12-23T03:39:35.860Z,31
2022-12-23T03:40:38.008Z,31
2022-12-23T03:41:40.021Z,31
2022-12-23T03:42:41.860Z,31
2022-12-23T03:43:50.326Z,33
2022-12-23T03:45:03.932Z,33
2022-12-23T03:45:47.880Z,33
2022-12-23T03:46:50.009Z,33
2022-12-23T03:47:51.887Z,34
2022-12-23T03:48:53.862Z,34
2022-12-23T03:49:55.907Z,34
2022-12-23T03:50:58.016Z,33
2022-12-23T03:51:59.947Z,31
2022-12-23T03:53:02.004Z,33
2022-12-23T03:54:03.819Z,33
2022-12-23T03:55:05.016Z,33
2022-12-23T03:56:06.939Z,31
2022-12-23T03:57:08.902Z,31
2022-12-23T03:58:10.929Z,31
2022-12-23T03:59:12.948Z,31
2022-12-23T04:00:14.898Z,30
2022-12-23T04:01:18.058Z,30
2022-12-23T04:02:18.018Z,30
2022-12-23T04:03:19.926Z,30
2022-12-23T04:04:21.939Z,30
2022-12-23T04:05:23.848Z,30
2022-12-23T04:06:24.806Z,31
2022-12-23T04:07:25.906Z,30
2022-12-23T04:08:27.973Z,30
2022-12-23T04:09:29.901Z,30
2022-12-23T04:10:31.887Z,30
2022-12-23T04:11:33.881Z,30
2022-12-23T04:12:35.900Z,30
2022-12-23T04:13:37.965Z,30
2022-12-23T04:14:40.060Z,30
2022-12-23T04:15:42.003Z,30
2022-12-23T04:16:43.957Z,30
2022-12-23T04:17:45.902Z,30
2022-12-23T04:18:47.854Z,30
2022-12-23T04:19:48.932Z,30
2022-12-23T04:20:50.928Z,31
2022-12-23T04:21:52.923Z,31
2022-12-23T04:22:54.880Z,31
2022-12-23T04:23:55.902Z,31
2022-12-23T04:24:57.980Z,31
2022-12-23T04:25:59.979Z,31
2022-12-23T04:27:01.943Z,31
2022-12-23T04:28:03.940Z,31
2022-12-23T04:29:05.890Z,31
2022-12-23T04:30:08.220Z,31
2022-12-23T04:31:09.969Z,31
2022-12-23T04:32:11.926Z,31
2022-12-23T04:33:13.921Z,30
2022-12-23T04:34:15.923Z,31
2022-12-23T04:35:17.959Z,31
2022-12-23T04:36:19.926Z,30
2022-12-23T04:37:22.005Z,31
2022-12-23T04:38:23.881Z,31
2022-12-23T04:39:25.952Z,31
2022-12-23T04:40:27.885Z,31
2022-12-23T04:41:28.966Z,31
2022-12-23T04:42:30.920Z,31
2022-12-23T04:43:32.857Z,31
2022-12-23T04:44:33.923Z,31
2022-12-23T04:45:35.845Z,33
2022-12-23T04:46:37.040Z,34
2022-12-23T04:47:38.961Z,34
2022-12-23T04:48:40.920Z,34
2022-12-23T04:49:42.988Z,35
2022-12-23T04:50:44.900Z,36
2022-12-23T04:51:45.981Z,37
2022-12-23T04:52:47.899Z,35
2022-12-23T04:53:49.921Z,35
2022-12-23T04:54:51.901Z,34
2022-12-23T04:55:53.908Z,34
2022-12-23T04:56:55.901Z,35
2022-12-23T04:57:58.094Z,34
2022-12-23T04:58:59.930Z,34
2022-12-23T05:00:02.010Z,34
2022-12-23T05:01:03.973Z,34
2022-12-23T05:02:06.085Z,33
2022-12-23T05:03:07.037Z,33
2022-12-23T05:04:08.931Z,33
2022-12-23T05:05:10.988Z,34
2022-12-23T05:06:12.881Z,34
2022-12-23T05:07:13.901Z,34
2022-12-23T05:08:15.930Z,34
2022-12-23T05:09:17.963Z,34
2022-12-23T05:10:20.042Z,34
2022-12-23T05:11:21.907Z,34
2022-12-23T05:12:23.843Z,34
2022-12-23T05:13:24.860Z,34
2022-12-23T05:14:26.009Z,34
2022-12-23T05:15:27.951Z,33
2022-12-23T05:16:30.036Z,33
2022-12-23T05:17:30.823Z,33
2022-12-23T05:18:31.941Z,33
2022-12-23T05:19:34.004Z,33
2022-12-23T05:20:35.984Z,33
2022-12-23T05:21:38.114Z,34
2022-12-23T05:22:40.040Z,34
2022-12-23T05:23:41.943Z,34
2022-12-23T05:24:43.825Z,34
2022-12-23T05:25:44.935Z,34
2022-12-23T05:26:48.015Z,34
2022-12-23T05:27:48.980Z,34
2022-12-23T05:28:51.042Z,34
2022-12-23T05:29:53.026Z,35
2022-12-23T05:30:54.925Z,35
2022-12-23T05:31:57.178Z,35
2022-12-23T05:32:58.980Z,34
2022-12-23T05:34:06.202Z,34
2022-12-23T05:35:03.074Z,34
2022-12-23T05:36:04.889Z,34
2022-12-23T05:38:13.061Z,33
2022-12-23T05:39:14.922Z,33
2022-12-23T05:40:19.998Z,33
2022-12-23T05:41:18.005Z,33
2022-12-23T05:42:19.940Z,33
2022-12-23T05:43:21.988Z,33
2022-12-23T05:44:23.963Z,33
2022-12-23T05:45:25.969Z,34
2022-12-23T05:46:27.434Z,34
2022-12-23T05:47:28.931Z,33
2022-12-23T05:48:30.924Z,33
2022-12-23T05:49:31.939Z,33
2022-12-23T05:50:33.899Z,34
2022-12-23T05:51:35.943Z,34
2022-12-23T05:52:36.882Z,34
2022-12-23T05:53:38.072Z,35
2022-12-23T05:54:39.862Z,35
2022-12-23T05:55:40.915Z,35
2022-12-23T05:56:41.939Z,35
2022-12-23T05:57:43.943Z,35
2022-12-23T05:58:44.949Z,36
2022-12-23T05:59:46.970Z,35
2022-12-23T06:00:49.104Z,35
2022-12-23T06:01:51.135Z,35
2022-12-23T06:02:54.048Z,34
2022-12-23T06:03:55.068Z,34
2022-12-23T06:04:55.942Z,35
2022-12-23T06:05:58.104Z,35
2022-12-23T06:06:59.948Z,35
2022-12-23T06:08:02.000Z,35
2022-12-23T06:09:04.060Z,35
2022-12-23T06:10:06.031Z,35
2022-12-23T06:11:08.018Z,35
2022-12-23T06:12:09.913Z,35
2022-12-23T06:13:10.911Z,36
2022-12-23T06:14:13.020Z,36
2022-12-23T06:15:14.958Z,36
2022-12-23T06:16:16.931Z,36
2022-12-23T06:17:18.981Z,36
2022-12-23T06:18:21.079Z,36
2022-12-23T06:19:22.962Z,36
2022-12-23T06:20:24.987Z,36
2022-12-23T06:21:27.008Z,37
2022-12-23T06:22:29.081Z,38
2022-12-23T06:23:30.983Z,38
2022-12-23T06:24:32.961Z,38
2022-12-23T06:25:35.041Z,38
2022-12-23T06:26:37.044Z,39
2022-12-23T06:27:38.961Z,39
2022-12-23T06:28:41.020Z,39
2022-12-23T06:29:43.041Z,38
2022-12-23T06:30:44.930Z,38
2022-12-23T06:31:46.027Z,38
2022-12-23T06:32:48.160Z,39
2022-12-23T06:33:51.022Z,38
2022-12-23T06:34:53.648Z,38
2022-12-23T06:35:55.104Z,38
2022-12-23T06:36:57.043Z,38
2022-12-23T06:37:59.271Z,38
2022-12-23T06:39:01.021Z,38
2022-12-23T06:40:03.100Z,39
2022-12-23T06:41:05.021Z,39
2022-12-23T06:42:06.986Z,39
2022-12-23T06:43:08.945Z,39
2022-12-23T06:44:09.940Z,39
2022-12-23T06:45:10.930Z,39
2022-12-23T06:46:13.206Z,39
2022-12-23T06:47:14.983Z,39
2022-12-23T06:48:16.008Z,39
2022-12-23T06:49:18.038Z,39
2022-12-23T06:50:19.960Z,39
2022-12-23T06:51:21.060Z,39
2022-12-23T06:52:23.135Z,39
2022-12-23T06:53:24.989Z,39
2022-12-23T06:54:26.899Z,39
2022-12-23T06:55:27.939Z,38
2022-12-23T06:56:30.029Z,38
2022-12-23T06:57:31.967Z,39
2022-12-23T06:58:33.021Z,38
2022-12-23T06:59:35.079Z,38
2022-12-23T07:00:37.106Z,38
2022-12-23T07:01:39.150Z,38
2022-12-23T07:02:41.095Z,38
2022-12-23T07:03:43.137Z,38
2022-12-23T07:04:44.985Z,38
2022-12-23T07:05:46.943Z,38
2022-12-23T07:06:49.001Z,38
2022-12-23T07:07:51.024Z,39
2022-12-23T07:08:52.985Z,38
2022-12-23T07:09:54.975Z,38
2022-12-23T07:10:56.979Z,38
2022-12-23T07:11:58.979Z,38
2022-12-23T07:13:01.020Z,38
2022-12-23T07:14:02.939Z,37
2022-12-23T07:15:04.035Z,38
2022-12-23T07:16:06.217Z,39
2022-12-23T07:17:08.074Z,40
2022-12-23T07:18:09.930Z,39
2022-12-23T07:19:10.900Z,39
2022-12-23T07:20:12.080Z,40
2022-12-23T07:21:21.491Z,39
2022-12-23T07:22:15.956Z,39
2022-12-23T07:23:16.989Z,39
2022-12-23T07:24:19.168Z,39
2022-12-23T07:25:21.075Z,39
2022-12-23T07:26:23.068Z,39
2022-12-23T07:27:25.100Z,38
2022-12-23T07:28:27.149Z,39
2022-12-23T07:29:29.105Z,38
2022-12-23T07:30:31.804Z,38
2022-12-23T07:31:33.463Z,38
2022-12-23T07:32:35.160Z,38
2022-12-23T07:33:37.129Z,39
2022-12-23T07:34:39.359Z,39
2022-12-23T07:35:40.979Z,39
2022-12-23T07:36:43.105Z,39
2022-12-23T07:37:45.019Z,38
2022-12-23T07:38:47.000Z,40
2022-12-23T07:39:49.038Z,39
2022-12-23T07:40:50.980Z,39
2022-12-23T07:42:09.302Z,39
2022-12-23T07:42:54.960Z,39
2022-12-23T07:43:56.000Z,39
2022-12-23T07:44:58.049Z,39
2022-12-23T07:46:01.103Z,39
2022-12-23T07:47:02.129Z,41
2022-12-23T07:48:04.026Z,-1
2022-12-23T07:49:06.086Z,39
2022-12-23T07:50:08.229Z,39
2022-12-23T07:51:10.045Z,39
2022-12-23T07:52:12.020Z,39
2022-12-23T07:53:14.060Z,38
2022-12-23T07:54:16.039Z,39
2022-12-23T07:55:18.145Z,39
2022-12-23T07:56:20.140Z,39
2022-12-23T07:57:22.023Z,38
2022-12-23T07:58:24.042Z,39
2022-12-23T07:59:26.037Z,38
2022-12-23T08:00:28.101Z,38
2022-12-23T08:01:30.077Z,38
2022-12-23T08:02:31.124Z,38
2022-12-23T08:03:33.118Z,39
2022-12-23T08:04:34.028Z,38
2022-12-23T08:05:36.142Z,38
2022-12-23T08:06:38.155Z,37
2022-12-23T08:07:40.001Z,37
2022-12-23T08:08:42.042Z,38
2022-12-23T08:09:44.019Z,38
2022-12-23T08:10:48.403Z,37
2022-12-23T08:11:48.095Z,37
2022-12-23T08:12:49.967Z,37
2022-12-23T08:13:50.979Z,38
2022-12-23T08:14:52.058Z,40
2022-12-23T08:15:54.039Z,39
2022-12-23T08:16:56.603Z,39
2022-12-23T08:17:58.033Z,38
2022-12-23T08:19:00.040Z,38
2022-12-23T08:20:02.127Z,39
2022-12-23T08:21:04.132Z,38
2022-12-23T08:22:05.983Z,38
2022-12-23T08:23:07.017Z,39
2022-12-23T08:24:08.941Z,39
2022-12-23T08:25:09.936Z,40
2022-12-23T08:26:11.220Z,39
2022-12-23T08:27:13.662Z,38
2022-12-23T08:28:15.129Z,38
2022-12-23T08:29:17.070Z,37
2022-12-23T08:30:19.145Z,38
2022-12-23T08:31:21.037Z,39
2022-12-23T08:32:22.127Z,38
2022-12-23T08:33:24.039Z,40
2022-12-23T08:34:26.037Z,39
2022-12-23T08:35:28.003Z,40
2022-12-23T08:36:30.121Z,40
2022-12-23T08:37:31.992Z,40
2022-12-23T08:38:36.446Z,40
2022-12-23T08:39:38.144Z,40
2022-12-23T08:40:39.973Z,40
2022-12-23T08:41:41.349Z,38
2022-12-23T08:42:43.060Z,37
2022-12-23T08:43:45.198Z,38
2022-12-23T08:44:47.124Z,38
2022-12-23T08:45:49.140Z,38
2022-12-23T08:46:51.331Z,36
2022-12-23T08:47:53.380Z,35
2022-12-23T08:48:55.101Z,36
2022-12-23T08:49:56.986Z,36
2022-12-23T08:50:58.300Z,35
2022-12-23T08:52:00.105Z,36
2022-12-23T08:53:02.199Z,35
2022-12-23T08:54:04.008Z,35
2022-12-23T08:55:06.340Z,36
2022-12-23T08:56:08.549Z,36
2022-12-23T08:57:10.107Z,36
2022-12-23T08:58:12.045Z,35
2022-12-23T08:59:18.552Z,35
2022-12-23T09:00:16.082Z,37
2022-12-23T09:01:18.251Z,37
2022-12-23T09:02:20.101Z,37
2022-12-23T09:03:21.206Z,36
2022-12-23T09:04:23.063Z,35
2022-12-23T09:05:25.081Z,35
2022-12-23T09:06:29.751Z,36
2022-12-23T09:07:28.000Z,36
2022-12-23T09:08:30.050Z,35
2022-12-23T09:09:32.078Z,35
2022-12-23T09:10:34.084Z,36
2022-12-23T09:11:36.234Z,35
2022-12-23T09:12:38.127Z,36
2022-12-23T09:13:40.180Z,36
2022-12-23T09:14:42.062Z,37
2022-12-23T09:15:44.645Z,37
2022-12-23T09:16:46.099Z,35
2022-12-23T09:17:48.009Z,36
2022-12-23T09:18:49.406Z,37
2022-12-23T09:19:53.100Z,36
2022-12-23T09:20:53.078Z,36
2022-12-23T09:21:55.080Z,36
2022-12-23T09:22:57.022Z,35
2022-12-23T09:23:59.070Z,36
2022-12-23T09:25:04.960Z,36
2022-12-23T09:26:02.142Z,34
2022-12-23T09:27:04.104Z,34
2022-12-23T09:28:06.100Z,35
2022-12-23T09:29:08.136Z,35
2022-12-23T09:30:10.205Z,35
2022-12-23T09:31:12.192Z,35
2022-12-23T09:32:14.040Z,34
2022-12-23T09:33:16.035Z,35
2022-12-23T09:34:18.015Z,35
2022-12-23T09:35:20.036Z,34
2022-12-23T09:36:21.046Z,34
2022-12-23T09:37:23.085Z,34
2022-12-23T09:38:25.083Z,34
2022-12-23T09:39:27.092Z,34
2022-12-23T09:40:29.091Z,34
2022-12-23T09:41:31.041Z,33
2022-12-23T09:42:33.072Z,33
2022-12-23T09:43:35.102Z,34
2022-12-23T09:44:37.181Z,34
2022-12-23T09:45:40.751Z,34
2022-12-23T09:46:41.337Z,33
2022-12-23T09:47:43.500Z,33
2022-12-23T09:48:45.408Z,33
2022-12-23T09:49:47.160Z,33
2022-12-23T09:50:49.041Z,31
2022-12-23T09:51:51.601Z,33
2022-12-23T09:52:53.820Z,31
2022-12-23T09:53:55.237Z,31
2022-12-23T09:54:57.379Z,31
2022-12-23T09:55:59.168Z,33
2022-12-23T09:57:01.123Z,31
2022-12-23T09:58:03.081Z,33
2022-12-23T09:59:04.056Z,33
2022-12-23T10:00:05.142Z,33
2022-12-23T10:01:07.081Z,33
2022-12-23T10:02:09.199Z,33
2022-12-23T10:03:10.228Z,33
2022-12-23T10:04:11.116Z,33
2022-12-23T10:05:13.300Z,33
2022-12-23T10:06:15.028Z,33
2022-12-23T10:07:16.013Z,33
2022-12-23T10:08:17.100Z,32
2022-12-23T10:09:19.104Z,33
2022-12-23T10:10:21.100Z,33
2022-12-23T10:11:23.539Z,33
2022-12-23T10:12:28.168Z,33
2022-12-23T10:13:27.651Z,34
2022-12-23T10:14:29.090Z,33
2022-12-23T10:15:31.126Z,33
2022-12-23T10:16:33.579Z,36
2022-12-23T10:17:35.051Z,33
2022-12-23T10:18:36.063Z,33
2022-12-23T10:19:38.522Z,34
2022-12-23T10:20:41.140Z,33
2022-12-23T10:21:47.418Z,33
2022-12-23T10:22:45.058Z,34
2022-12-23T10:23:46.491Z,35
2022-12-23T10:24:48.101Z,35
2022-12-23T10:25:50.103Z,35
2022-12-23T10:26:52.161Z,35
2022-12-23T10:27:54.300Z,35
2022-12-23T10:28:56.227Z,36
2022-12-23T10:29:58.223Z,35
2022-12-23T10:32:02.609Z,36
2022-12-23T10:33:04.083Z,35
2022-12-23T10:34:06.120Z,36
2022-12-23T10:35:08.129Z,36
2022-12-23T10:36:10.173Z,36
2022-12-23T10:37:13.462Z,36
2022-12-23T10:38:15.214Z,36
2022-12-23T10:39:17.144Z,35
2022-12-23T10:40:19.045Z,34
2022-12-23T10:41:20.211Z,34
2022-12-23T10:42:22.402Z,34
2022-12-23T10:43:24.596Z,31
2022-12-23T10:44:26.970Z,33
2022-12-23T10:45:28.156Z,33
2022-12-23T10:46:30.363Z,33
2022-12-23T10:47:32.063Z,33
2022-12-23T10:48:33.175Z,33
2022-12-23T10:49:34.121Z,34
2022-12-23T10:50:36.141Z,33
2022-12-23T10:51:38.323Z,33
2022-12-23T10:52:40.109Z,34
2022-12-23T10:53:42.912Z,34
2022-12-23T10:54:44.986Z,33
2022-12-23T10:55:46.525Z,33
2022-12-23T10:56:48.400Z,34
2022-12-23T10:57:50.308Z,33
2022-12-23T10:58:52.876Z,33
2022-12-23T10:59:54.064Z,33
2022-12-23T11:00:56.183Z,34
2022-12-23T11:01:58.433Z,34
2022-12-23T11:03:00.359Z,34
2022-12-23T11:04:02.121Z,33
2022-12-23T11:05:04.420Z,33
2022-12-23T11:06:06.185Z,33
2022-12-23T11:07:41.876Z,33
2022-12-23T11:08:09.123Z,34
2022-12-23T11:09:11.406Z,33
2022-12-23T11:10:13.283Z,31
2022-12-23T11:11:15.741Z,30
2022-12-23T11:12:17.190Z,30
2022-12-23T11:13:19.100Z,31
2022-12-23T11:14:21.282Z,33
2022-12-23T11:15:23.145Z,31
2022-12-23T11:16:26.351Z,31
2022-12-23T11:17:28.148Z,31
2022-12-23T11:18:30.156Z,30
2022-12-23T11:19:32.517Z,30
2022-12-23T11:20:34.146Z,29
2022-12-23T11:21:36.224Z,30
2022-12-23T11:22:38.200Z,29
2022-12-23T11:23:40.204Z,28
2022-12-23T11:24:43.347Z,29
2022-12-23T11:25:44.194Z,28
2022-12-23T11:26:46.495Z,29
2022-12-23T11:27:48.033Z,28
2022-12-23T11:28:50.127Z,28
2022-12-23T11:29:52.221Z,28
2022-12-23T11:30:56.454Z,28
2022-12-23T11:31:56.332Z,28
2022-12-23T11:32:58.320Z,28
2022-12-23T11:34:00.149Z,28
2022-12-23T11:35:02.295Z,28
2022-12-23T11:36:04.055Z,28
2022-12-23T11:37:07.639Z,28
2022-12-23T11:38:07.216Z,27
2022-12-23T11:39:09.351Z,27
2022-12-23T11:40:11.224Z,27
2022-12-23T11:41:13.169Z,28
2022-12-23T11:42:15.163Z,28
2022-12-23T11:43:17.147Z,27
2022-12-23T11:44:19.261Z,27
2022-12-23T11:45:21.460Z,28
2022-12-23T11:46:23.823Z,27
2022-12-23T11:47:26.924Z,27
2022-12-23T11:48:28.990Z,27
2022-12-23T11:49:31.203Z,28
2022-12-23T11:50:33.587Z,28
2022-12-23T11:51:35.383Z,28
2022-12-23T11:52:37.193Z,27
2022-12-23T11:53:39.348Z,28
2022-12-23T11:54:41.127Z,28
2022-12-23T11:55:43.303Z,29
2022-12-23T11:56:45.596Z,28
2022-12-23T11:57:47.082Z,30
2022-12-23T11:58:48.151Z,30
2022-12-23T11:59:49.665Z,28
2022-12-23T12:00:55.475Z,28
2022-12-23T12:01:53.501Z,28
2022-12-23T12:02:55.285Z,27
2022-12-23T12:03:56.280Z,28
2022-12-23T12:04:58.453Z,28
2022-12-23T12:06:00.224Z,27
2022-12-23T12:07:02.345Z,27
2022-12-23T12:08:04.530Z,28
2022-12-23T12:09:06.502Z,27
2022-12-23T12:10:08.216Z,27
2022-12-23T12:11:11.178Z,27
2022-12-23T12:12:13.576Z,27
2022-12-23T12:13:15.081Z,27
2022-12-23T12:14:16.080Z,28
2022-12-23T12:15:17.762Z,28
2022-12-23T12:16:19.148Z,28
2022-12-23T12:17:21.383Z,28
2022-12-23T12:18:23.406Z,29
2022-12-23T12:19:25.194Z,30
2022-12-23T12:20:27.308Z,29
2022-12-23T12:21:29.290Z,30
2022-12-23T12:22:31.197Z,30
2022-12-23T12:23:33.130Z,30
2022-12-23T12:24:34.222Z,30
2022-12-23T12:25:39.483Z,30
2022-12-23T12:26:38.139Z,30
2022-12-23T12:27:40.228Z,30
2022-12-23T12:28:42.144Z,31
2022-12-23T12:29:44.133Z,30
2022-12-23T12:30:45.203Z,30
2022-12-23T12:31:47.182Z,30
2022-12-23T12:32:49.235Z,31
2022-12-23T12:33:51.391Z,31
2022-12-23T12:34:53.141Z,31
2022-12-23T12:35:55.942Z,31
2022-12-23T12:36:56.302Z,31
2022-12-23T12:37:58.533Z,30
2022-12-23T12:39:00.308Z,31
2022-12-23T12:40:02.682Z,31
2022-12-23T12:41:04.202Z,33
2022-12-23T12:42:06.172Z,31
2022-12-23T12:43:07.290Z,30
2022-12-23T12:44:09.181Z,30
2022-12-23T12:45:11.175Z,30
2022-12-23T12:46:13.546Z,30
2022-12-23T12:47:36.705Z,31
2022-12-23T12:48:18.833Z,31
2022-12-23T12:49:19.391Z,31
2022-12-23T12:50:22.261Z,30
2022-12-23T12:51:24.143Z,31
2022-12-23T12:52:26.163Z,31
2022-12-23T12:53:28.265Z,31
2022-12-23T12:54:30.344Z,30
2022-12-23T12:55:32.150Z,30
2022-12-23T12:56:34.181Z,29
2022-12-23T12:57:36.349Z,30
2022-12-23T12:58:38.308Z,29
2022-12-23T12:59:40.600Z,29
2022-12-23T13:00:42.441Z,29
2022-12-23T13:01:44.286Z,28
2022-12-23T13:02:46.357Z,29
2022-12-23T13:03:48.563Z,29
2022-12-23T13:04:50.304Z,29
2022-12-23T13:05:54.324Z,29
2022-12-23T13:06:54.711Z,29
2022-12-23T13:07:56.269Z,29
2022-12-23T13:08:58.737Z,28
2022-12-23T13:10:00.369Z,28
2022-12-23T13:11:02.641Z,28
2022-12-23T13:12:05.109Z,28
2022-12-23T13:13:06.463Z,29
2022-12-23T13:14:08.142Z,30
2022-12-23T13:15:10.362Z,29
2022-12-23T13:16:12.186Z,29
2022-12-23T13:17:14.492Z,29
2022-12-23T13:18:16.498Z,28
2022-12-23T13:19:18.446Z,28
2022-12-23T13:20:20.415Z,28
2022-12-23T13:21:22.600Z,29
2022-12-23T13:22:24.681Z,29
2022-12-23T13:24:28.360Z,28
2022-12-23T13:25:30.278Z,28
2022-12-23T13:26:32.180Z,28
2022-12-23T13:27:34.262Z,28
2022-12-23T13:28:36.240Z,28
2022-12-23T13:29:38.263Z,29
2022-12-23T13:30:40.417Z,29
2022-12-23T13:31:42.222Z,29
2022-12-23T13:32:44.219Z,29
2022-12-23T13:33:46.180Z,29
2022-12-23T13:34:48.149Z,29
2022-12-23T13:35:50.189Z,29
2022-12-23T13:36:52.310Z,30
2022-12-23T13:37:54.225Z,30
2022-12-23T13:38:56.127Z,30
2022-12-23T13:39:58.369Z,30
2022-12-23T13:41:00.321Z,30
2022-12-23T13:42:05.436Z,29
2022-12-23T13:43:04.271Z,29
2022-12-23T13:44:06.219Z,29
2022-12-23T13:45:08.227Z,29
2022-12-23T13:46:10.312Z,29
2022-12-23T13:47:12.220Z,29
2022-12-23T13:48:14.799Z,28
2022-12-23T13:49:16.199Z,28
2022-12-23T13:50:18.385Z,28
2022-12-23T13:51:20.208Z,28
2022-12-23T13:52:22.319Z,28
2022-12-23T13:53:24.427Z,28
2022-12-23T13:54:26.355Z,28
2022-12-23T13:55:28.520Z,28
2022-12-23T13:56:30.188Z,28
2022-12-23T13:57:32.108Z,29
2022-12-23T13:58:34.163Z,29
2022-12-23T13:59:36.220Z,28
2022-12-23T14:00:38.274Z,28
2022-12-23T14:01:40.356Z,28
2022-12-23T14:02:42.643Z,28
2022-12-23T14:03:44.240Z,28
2022-12-23T14:04:46.380Z,28
2022-12-23T14:05:48.300Z,28
2022-12-23T14:06:50.267Z,28
2022-12-23T14:07:52.260Z,28
2022-12-23T14:08:54.198Z,28
2022-12-23T14:09:56.218Z,27
2022-12-23T14:10:58.506Z,27
2022-12-23T14:12:04.243Z,27
2022-12-23T14:13:02.592Z,27
2022-12-23T14:14:04.273Z,27
2022-12-23T14:15:06.264Z,26
2022-12-23T14:16:08.292Z,26
2022-12-23T14:17:10.332Z,26
2022-12-23T14:18:12.442Z,26
2022-12-23T14:19:15.410Z,26
2022-12-23T14:20:17.207Z,27
2022-12-23T14:21:19.207Z,27
2022-12-23T14:22:21.119Z,27
2022-12-23T14:23:22.208Z,27
2022-12-23T14:24:24.344Z,27
2022-12-23T14:25:26.438Z,27
2022-12-23T14:26:28.624Z,27
2022-12-23T14:27:30.244Z,27
2022-12-23T14:28:32.161Z,29
2022-12-23T14:29:33.161Z,29
2022-12-23T14:30:35.240Z,29
2022-12-23T14:31:37.401Z,30
2022-12-23T14:32:39.323Z,30
2022-12-23T14:33:41.212Z,31
2022-12-23T14:34:43.270Z,31
2022-12-23T14:35:45.243Z,33
2022-12-23T14:36:47.409Z,33
2022-12-23T14:37:49.203Z,33
2022-12-23T14:38:50.207Z,33
2022-12-23T14:39:52.387Z,33
2022-12-23T14:40:54.282Z,33
2022-12-23T14:42:01.793Z,34
2022-12-23T14:42:59.221Z,34
2022-12-23T14:44:01.322Z,33
2022-12-23T14:45:03.259Z,34
2022-12-23T14:46:05.509Z,34
2022-12-23T14:47:07.321Z,34
2022-12-23T14:48:09.195Z,34
2022-12-23T14:49:37.358Z,34